createdAt,value
2022-08-17T00:04:19.662Z,7.92
2022-08-17T00:09:22.615Z,8.00
2022-08-17T00:14:25.286Z,8.10
2022-08-17T00:19:28.027Z,8.15
2022-08-17T00:24:31.194Z,8.17
2022-08-17T00:29:34.042Z,8.25
2022-08-17T00:34:36.763Z,8.39
2022-08-17T00:39:39.610Z,8.55
2022-08-17T00:44:42.331Z,8.69
2022-08-17T00:49:44.980Z,8.82
2022-08-17T00:54:48.815Z,9.11
2022-08-17T01:00:02.014Z,9.37
2022-08-17T01:05:08.258Z,9.73
2022-08-17T01:11:00.379Z,10.08
2022-08-17T01:15:38.559Z,10.60
2022-08-17T01:21:03.450Z,11.04
2022-08-17T01:26:06.933Z,11.58
2022-08-17T01:31:10.311Z,11.97
2022-08-17T01:36:13.058Z,12.10
2022-08-17T01:41:16.919Z,12.15
2022-08-17T01:46:27.575Z,12.32
2022-08-17T01:51:33.210Z,12.47
2022-08-17T01:56:38.701Z,12.87
2022-08-17T02:01:41.400Z,13.09
2022-08-17T02:06:52.441Z,13.14
2022-08-17T02:11:59.597Z,13.16
2022-08-17T02:17:02.361Z,13.28
2022-08-17T02:22:05.189Z,13.62
2022-08-17T02:27:08.011Z,13.77
2022-08-17T02:32:25.478Z,14.06
2022-08-17T02:37:31.755Z,14.32
2022-08-17T02:42:40.099Z,14.43
2022-08-17T02:47:43.903Z,14.63
2022-08-17T02:52:50.163Z,14.64
2022-08-17T02:58:05.470Z,14.48
2022-08-17T03:03:11.114Z,14.15
2022-08-17T03:08:14.360Z,13.75
2022-08-17T03:13:17.353Z,13.58
2022-08-17T03:18:25.661Z,13.73
2022-08-17T03:23:31.389Z,14.52
2022-08-17T03:28:35.234Z,15.53
2022-08-17T03:33:38.076Z,16.08
2022-08-17T03:38:40.847Z,16.36
2022-08-17T03:43:44.205Z,16.60
2022-08-17T03:49:05.522Z,16.60
2022-08-17T03:54:27.807Z,16.14
2022-08-17T03:59:31.559Z,16.15
2022-08-17T04:04:34.614Z,16.25
2022-08-17T04:09:37.423Z,16.52
2022-08-17T04:14:51.811Z,16.99
2022-08-17T04:19:57.750Z,16.87
2022-08-17T04:25:06.057Z,16.77
2022-08-17T04:30:09.504Z,17.00
2022-08-17T04:35:12.427Z,17.27
2022-08-17T04:40:33.428Z,17.04
2022-08-17T04:45:55.226Z,16.39
2022-08-17T04:51:00.363Z,15.96
2022-08-17T04:56:03.362Z,16.09
2022-08-17T05:01:07.461Z,16.72
2022-08-17T05:06:10.392Z,17.51
2022-08-17T05:11:13.157Z,18.36
2022-08-17T05:16:16.182Z,18.96
2022-08-17T05:21:20.125Z,19.17
2022-08-17T05:26:26.124Z,19.27
2022-08-17T05:31:30.632Z,19.32
2022-08-17T05:36:37.870Z,18.45
2022-08-17T05:41:48.355Z,17.90
2022-08-17T05:46:52.723Z,17.53
2022-08-17T05:52:42.941Z,18.00
2022-08-17T05:57:53.654Z,18.65
2022-08-17T06:03:36.631Z,18.65
2022-08-17T06:08:46.366Z,19.19
2022-08-17T06:14:09.631Z,18.86
2022-08-17T06:19:26.332Z,18.61
2022-08-17T06:24:53.679Z,18.76
2022-08-17T06:30:02.801Z,18.48
2022-08-17T06:35:11.030Z,17.95
2022-08-17T06:40:28.901Z,17.23
2022-08-17T06:45:40.106Z,16.76
2022-08-17T06:50:47.781Z,16.64
2022-08-17T06:56:09.370Z,17.07
2022-08-17T07:01:18.694Z,17.79
2022-08-17T07:06:23.897Z,18.32
2022-08-17T07:11:33.823Z,18.57
2022-08-17T07:16:44.392Z,18.53
2022-08-17T07:21:58.297Z,17.77
2022-08-17T07:27:11.445Z,17.77
2022-08-17T07:32:18.940Z,18.50
2022-08-17T07:37:21.675Z,18.39
2022-08-17T07:42:28.977Z,17.92
2022-08-17T07:47:50.393Z,17.28
2022-08-17T07:52:53.414Z,16.84
2022-08-17T07:57:58.641Z,16.74
2022-08-17T08:03:34.501Z,16.54
2022-08-17T08:08:44.645Z,16.49
2022-08-17T08:13:50.206Z,16.29
2022-08-17T08:18:59.089Z,16.27
2022-08-17T08:24:30.965Z,16.23
2022-08-17T08:29:45.988Z,16.58
2022-08-17T08:35:07.118Z,17.53
2022-08-17T08:40:34.240Z,18.57
2022-08-17T08:46:08.811Z,18.58
2022-08-17T08:51:47.774Z,18.50
2022-08-17T08:57:23.146Z,17.83
2022-08-17T09:02:45.857Z,17.25
2022-08-17T09:07:57.399Z,16.64
2022-08-17T09:13:22.519Z,16.30
2022-08-17T09:19:02.914Z,15.47
2022-08-17T09:24:05.409Z,14.70
2022-08-17T09:29:10.406Z,14.39
2022-08-17T09:34:21.591Z,14.39
2022-08-17T09:39:35.597Z,14.52
2022-08-17T09:45:01.752Z,14.51
2022-08-17T09:51:01.564Z,14.33
2022-08-17T09:56:03.487Z,14.28
2022-08-17T10:01:32.103Z,14.10
2022-08-17T10:06:48.279Z,13.97
2022-08-17T10:12:17.106Z,13.87
2022-08-17T10:17:26.488Z,13.61
2022-08-17T10:23:02.839Z,13.60
2022-08-17T10:28:09.793Z,13.83
2022-08-17T10:33:28.822Z,14.23
2022-08-17T10:38:38.250Z,14.52
2022-08-17T10:44:39.608Z,15.08
2022-08-17T10:49:29.777Z,15.89
2022-08-17T10:54:38.766Z,16.47
2022-08-17T10:59:42.326Z,16.69
2022-08-17T11:05:14.426Z,16.74
2022-08-17T11:10:25.892Z,16.85
2022-08-17T11:15:41.673Z,16.68
2022-08-17T11:21:21.526Z,16.44
2022-08-17T11:26:30.723Z,16.26
2022-08-17T11:31:46.953Z,15.96
2022-08-17T11:37:19.037Z,15.50
2022-08-17T11:43:00.563Z,15.07
2022-08-17T11:48:34.129Z,14.86
2022-08-17T11:53:39.989Z,14.83
2022-08-17T11:58:47.333Z,14.89
2022-08-17T12:09:45.405Z,14.90
2022-08-17T12:15:11.915Z,14.74
2022-08-17T12:20:22.531Z,14.76
2022-08-17T12:25:52.084Z,14.81
2022-08-17T12:31:08.611Z,14.67
2022-08-17T12:36:21.759Z,14.56
2022-08-17T12:41:43.699Z,14.41
2022-08-17T12:46:56.794Z,14.30
2022-08-17T12:52:19.984Z,14.24
2022-08-17T12:57:34.543Z,14.17
2022-08-17T13:02:51.232Z,14.07
2022-08-17T13:07:57.109Z,13.89
2022-08-17T13:13:07.764Z,13.67
2022-08-17T13:18:42.402Z,13.50
2022-08-17T13:24:10.051Z,13.42
2022-08-17T13:29:35.183Z,13.40
2022-08-17T13:35:07.764Z,13.21
2022-08-17T13:40:12.248Z,13.03
2022-08-17T13:45:39.602Z,12.91
2022-08-17T13:50:51.149Z,12.79
2022-08-17T13:56:04.629Z,12.58
2022-08-17T14:01:49.675Z,12.61
2022-08-17T14:07:22.445Z,12.53
2022-08-17T14:12:32.048Z,12.42
2022-08-17T14:17:39.014Z,12.26
2022-08-17T14:22:45.474Z,12.09
2022-08-17T14:27:53.445Z,11.99
2022-08-17T14:33:25.939Z,11.87
2022-08-17T14:38:28.809Z,11.81
2022-08-17T14:43:35.693Z,11.67
2022-08-17T14:48:40.986Z,11.63
2022-08-17T14:53:43.864Z,11.64
2022-08-17T14:58:46.770Z,11.70
2022-08-17T15:03:49.510Z,11.71
2022-08-17T15:08:54.615Z,11.75
2022-08-17T15:13:57.682Z,11.83
2022-08-17T15:19:00.626Z,11.81
2022-08-17T15:24:04.643Z,11.77
2022-08-17T15:29:10.595Z,11.67
2022-08-17T15:34:15.906Z,11.57
2022-08-17T15:39:19.678Z,11.62
2022-08-17T15:44:22.885Z,11.61
2022-08-17T15:49:35.447Z,11.60
2022-08-17T15:54:40.478Z,11.55
2022-08-17T15:59:50.785Z,11.52
2022-08-17T16:05:13.742Z,11.50
2022-08-17T16:10:19.251Z,11.44
2022-08-17T16:15:22.131Z,11.38
2022-08-17T16:20:28.536Z,11.32
2022-08-17T16:25:47.210Z,11.25
2022-08-17T16:30:56.345Z,11.16
2022-08-17T16:35:59.299Z,10.94
2022-08-17T16:41:03.301Z,11.02
2022-08-17T16:46:05.989Z,10.94
2022-08-17T16:51:08.889Z,10.90
2022-08-17T16:56:11.596Z,10.92
2022-08-17T17:01:16.113Z,10.93
2022-08-17T17:06:34.313Z,10.82
2022-08-17T17:11:53.395Z,10.88
2022-08-17T17:17:33.897Z,10.82
2022-08-17T17:22:51.228Z,10.74
2022-08-17T17:28:11.856Z,10.66
2022-08-17T17:33:22.926Z,10.61
2022-08-17T17:38:29.511Z,10.56
2022-08-17T17:43:40.353Z,10.51
2022-08-17T17:48:43.449Z,10.47
2022-08-17T17:54:11.597Z,10.44
2022-08-17T17:59:43.774Z,10.44
2022-08-17T18:04:58.803Z,10.37
2022-08-17T18:10:19.725Z,10.37
2022-08-17T18:15:37.404Z,10.40
2022-08-17T18:20:46.590Z,10.41
2022-08-17T18:25:59.071Z,10.43
2022-08-17T18:31:11.040Z,10.40
2022-08-17T18:36:28.180Z,10.37
2022-08-17T18:41:41.057Z,10.35
2022-08-17T18:46:43.758Z,10.35
2022-08-17T18:51:47.046Z,10.29
2022-08-17T18:57:00.135Z,10.27
2022-08-17T19:07:41.408Z,10.22
2022-08-17T19:12:53.523Z,10.19
2022-08-17T19:18:01.745Z,10.21
2022-08-17T19:23:15.459Z,10.24
2022-08-17T19:28:35.316Z,10.32
2022-08-17T19:33:39.250Z,10.30
2022-08-17T19:38:49.143Z,10.29
2022-08-17T19:44:07.060Z,10.31
2022-08-17T19:49:41.041Z,10.24
2022-08-17T19:54:55.753Z,10.21
2022-08-17T20:00:31.660Z,10.15
2022-08-17T20:06:12.148Z,10.07
2022-08-17T20:11:25.550Z,9.94
2022-08-17T20:16:28.370Z,9.93
2022-08-17T20:21:47.076Z,9.94
2022-08-17T20:26:58.532Z,9.90
2022-08-17T20:32:01.776Z,9.98
2022-08-17T20:37:07.306Z,9.99
2022-08-17T20:42:23.275Z,9.96
2022-08-17T20:47:34.071Z,9.93
2022-08-17T20:52:57.221Z,9.96
2022-08-17T20:58:23.464Z,9.83
2022-08-17T21:03:39.941Z,9.92
2022-08-17T21:09:13.731Z,9.91
2022-08-17T21:14:28.642Z,9.91
2022-08-17T21:20:12.872Z,9.89
2022-08-17T21:25:15.629Z,9.87
2022-08-17T21:30:26.240Z,9.83
2022-08-17T21:35:58.737Z,9.84
2022-08-17T21:41:04.148Z,9.81
2022-08-17T21:46:12.852Z,9.77
2022-08-17T21:51:24.638Z,9.74
2022-08-17T21:56:41.402Z,9.71
2022-08-17T22:01:44.126Z,9.67
2022-08-17T22:06:57.071Z,9.62
2022-08-17T22:12:20.900Z,9.51
2022-08-17T22:17:40.330Z,9.38
2022-08-17T22:23:04.269Z,9.27
2022-08-17T22:28:10.160Z,9.14
2022-08-17T22:33:33.250Z,9.16
2022-08-17T22:38:36.318Z,9.11
2022-08-17T22:43:44.690Z,9.14
2022-08-17T22:48:51.848Z,9.17
2022-08-17T22:54:34.043Z,9.21
2022-08-17T22:59:45.590Z,9.26
2022-08-17T23:04:54.767Z,9.30
2022-08-17T23:09:57.491Z,9.36
2022-08-17T23:15:02.067Z,9.39
2022-08-17T23:20:08.660Z,9.50
2022-08-17T23:25:23.926Z,9.57
2022-08-17T23:30:28.816Z,9.65
2022-08-17T23:35:39.053Z,9.71
2022-08-17T23:40:42.373Z,9.85
2022-08-17T23:45:45.133Z,10.00
2022-08-17T23:50:52.054Z,10.12
2022-08-17T23:56:09.574Z,10.18
